createdAt,value
2019-03-28T00:02:15.371Z,85.00
2019-03-28T00:04:42.628Z,85.21
2019-03-28T00:07:09.909Z,84.81
2019-03-28T00:09:37.122Z,84.24
2019-03-28T00:12:04.332Z,83.97
2019-03-28T00:14:31.545Z,84.48
2019-03-28T00:16:58.880Z,84.23
2019-03-28T00:19:26.097Z,84.10
2019-03-28T00:21:53.333Z,84.17
2019-03-28T00:24:24.593Z,83.91
2019-03-28T00:26:51.925Z,84.48
2019-03-28T00:29:19.224Z,84.43
2019-03-28T00:31:48.064Z,84.53
2019-03-28T00:34:15.351Z,84.79
2019-03-28T00:36:42.680Z,84.89
2019-03-28T00:39:10.005Z,84.83
2019-03-28T00:41:37.307Z,84.27
2019-03-28T00:44:04.644Z,84.16
2019-03-28T00:46:31.932Z,84.88
2019-03-28T00:48:59.254Z,85.87
2019-03-28T00:51:26.556Z,85.83
2019-03-28T00:53:53.897Z,86.00
2019-03-28T00:56:21.231Z,85.72
2019-03-28T00:58:48.439Z,85.94
2019-03-28T01:01:15.760Z,86.53
2019-03-28T01:03:43.064Z,87.24
2019-03-28T01:06:10.296Z,87.63
2019-03-28T01:08:37.898Z,87.32
2019-03-28T01:11:05.312Z,87.68
2019-03-28T01:13:32.516Z,87.68
2019-03-28T01:15:59.961Z,87.36
2019-03-28T01:18:27.146Z,87.75
2019-03-28T01:20:54.387Z,88.03
2019-03-28T01:23:21.710Z,88.35
2019-03-28T01:25:48.930Z,87.91
2019-03-28T01:28:16.364Z,87.60
2019-03-28T01:30:43.571Z,87.28
2019-03-28T01:33:10.888Z,86.93
2019-03-28T01:35:38.217Z,87.10
2019-03-28T01:38:05.513Z,87.55
2019-03-28T01:40:32.844Z,87.92
2019-03-28T01:43:00.030Z,88.14
2019-03-28T01:45:27.357Z,88.47
2019-03-28T01:47:54.558Z,88.76
2019-03-28T01:50:21.888Z,88.99
2019-03-28T01:52:49.109Z,89.32
2019-03-28T01:55:16.421Z,89.45
2019-03-28T01:57:43.750Z,89.07
2019-03-28T02:00:12.340Z,88.93
2019-03-28T02:02:39.812Z,88.49
2019-03-28T02:05:07.555Z,87.95
2019-03-28T02:07:34.861Z,87.83
2019-03-28T02:10:02.203Z,87.79
2019-03-28T02:12:29.427Z,87.11
2019-03-28T02:14:56.722Z,87.24
2019-03-28T02:17:24.066Z,87.53
2019-03-28T02:19:51.377Z,86.88
2019-03-28T02:22:19.303Z,86.89
2019-03-28T02:24:47.210Z,86.60
2019-03-28T02:27:23.999Z,86.83
2019-03-28T02:29:43.765Z,86.98
2019-03-28T02:32:11.105Z,86.85
2019-03-28T02:34:38.414Z,87.14
2019-03-28T02:37:06.074Z,87.47
2019-03-28T02:39:33.294Z,87.93
2019-03-28T02:42:01.596Z,88.22
2019-03-28T02:44:31.698Z,88.58
2019-03-28T02:46:59.053Z,88.52
2019-03-28T02:49:26.252Z,88.52
2019-03-28T02:51:53.490Z,88.23
2019-03-28T02:54:20.825Z,87.06
2019-03-28T02:56:48.175Z,85.81
2019-03-28T02:59:15.382Z,85.24
2019-03-28T03:01:42.722Z,85.77
2019-03-28T03:04:10.036Z,86.02
2019-03-28T03:06:37.385Z,85.91
2019-03-28T03:09:08.397Z,85.43
2019-03-28T03:11:36.031Z,85.58
2019-03-28T03:14:03.396Z,84.74
2019-03-28T03:16:30.734Z,85.25
2019-03-28T03:18:58.082Z,85.55
2019-03-28T03:21:25.420Z,85.23
2019-03-28T03:23:52.743Z,85.81
2019-03-28T03:26:20.079Z,85.86
2019-03-28T03:28:47.284Z,86.23
2019-03-28T03:31:20.599Z,86.21
2019-03-28T03:33:43.842Z,86.13
2019-03-28T03:36:11.191Z,86.46
2019-03-28T03:38:38.503Z,86.95
2019-03-28T03:41:05.851Z,87.18
2019-03-28T03:43:33.169Z,87.60
2019-03-28T03:46:01.641Z,87.54
2019-03-28T03:48:29.239Z,87.22
2019-03-28T03:50:56.452Z,87.05
2019-03-28T03:53:23.791Z,87.11
2019-03-28T03:55:51.112Z,87.26
2019-03-28T03:58:18.857Z,87.51
2019-03-28T04:00:46.670Z,87.80
2019-03-28T04:03:13.991Z,88.10
2019-03-28T04:05:41.237Z,87.87
2019-03-28T04:08:08.472Z,87.79
2019-03-28T04:10:35.796Z,88.03
2019-03-28T04:13:03.142Z,88.43
2019-03-28T04:15:30.439Z,88.68
2019-03-28T04:17:58.207Z,88.65
2019-03-28T04:20:25.528Z,88.83
2019-03-28T04:22:52.758Z,89.23
2019-03-28T04:25:19.979Z,89.39
2019-03-28T04:27:47.207Z,89.66
2019-03-28T04:30:14.526Z,89.99
2019-03-28T04:32:41.883Z,90.28
2019-03-28T04:35:09.203Z,90.57
2019-03-28T04:37:36.556Z,90.82
2019-03-28T04:40:05.102Z,90.99
2019-03-28T04:42:32.749Z,91.21
2019-03-28T04:44:59.964Z,91.40
2019-03-28T04:47:27.126Z,91.58
2019-03-28T04:49:56.609Z,91.78
2019-03-28T04:52:23.930Z,91.85
2019-03-28T04:54:51.285Z,91.89
2019-03-28T04:57:18.611Z,91.98
2019-03-28T04:59:46.373Z,92.06
2019-03-28T05:02:13.590Z,92.01
2019-03-28T05:04:40.937Z,92.03
2019-03-28T05:07:08.235Z,91.92
2019-03-28T05:09:35.573Z,91.84
2019-03-28T05:12:03.161Z,91.91
2019-03-28T05:14:30.502Z,91.83
2019-03-28T05:16:57.705Z,91.81
2019-03-28T05:19:25.040Z,91.88
2019-03-28T05:21:52.370Z,91.89
2019-03-28T05:24:19.755Z,91.82
2019-03-28T05:26:47.068Z,91.77
2019-03-28T05:29:14.404Z,91.82
2019-03-28T05:31:41.729Z,91.96
2019-03-28T05:34:09.063Z,92.17
2019-03-28T05:36:36.270Z,92.26
2019-03-28T05:39:05.452Z,92.32
2019-03-28T05:41:32.755Z,92.31
2019-03-28T05:44:00.090Z,92.34
2019-03-28T05:46:27.425Z,92.29
2019-03-28T05:48:54.758Z,91.80
2019-03-28T05:51:22.088Z,91.58
2019-03-28T05:53:49.437Z,91.56
2019-03-28T05:56:16.675Z,91.63
2019-03-28T05:58:44.020Z,91.82
2019-03-28T06:01:11.347Z,91.97
2019-03-28T06:03:38.698Z,92.06
2019-03-28T06:06:06.000Z,92.17
2019-03-28T06:08:33.335Z,92.18
2019-03-28T06:11:00.562Z,92.17
2019-03-28T06:13:27.807Z,92.14
2019-03-28T06:15:55.035Z,91.65
2019-03-28T06:18:22.155Z,91.42
2019-03-28T06:20:49.391Z,90.96
2019-03-28T06:23:16.728Z,90.67
2019-03-28T06:25:44.061Z,90.26
2019-03-28T06:28:11.377Z,89.66
2019-03-28T06:30:38.717Z,89.28
2019-03-28T06:33:06.029Z,89.32
2019-03-28T06:35:33.363Z,89.19
2019-03-28T06:38:00.688Z,89.21
2019-03-28T06:40:28.035Z,88.32
2019-03-28T06:42:55.394Z,87.92
2019-03-28T06:45:22.824Z,86.77
2019-03-28T06:47:50.147Z,85.17
2019-03-28T06:50:17.500Z,83.38
2019-03-28T06:52:44.928Z,83.11
2019-03-28T06:55:12.299Z,84.13
2019-03-28T06:57:39.618Z,83.75
2019-03-28T07:00:08.473Z,83.45
2019-03-28T07:02:35.777Z,83.36
2019-03-28T07:05:03.358Z,81.67
2019-03-28T07:07:30.962Z,82.40
2019-03-28T07:09:58.300Z,81.34
2019-03-28T07:12:25.516Z,81.32
2019-03-28T07:14:52.888Z,81.15
2019-03-28T07:17:20.213Z,82.26
2019-03-28T07:19:47.536Z,82.77
2019-03-28T07:22:14.865Z,83.38
2019-03-28T07:24:42.126Z,83.56
2019-03-28T07:27:09.342Z,83.41
2019-03-28T07:29:49.843Z,83.22
2019-03-28T07:32:05.889Z,81.40
2019-03-28T07:34:33.219Z,80.75
2019-03-28T07:37:00.550Z,80.87
2019-03-28T07:39:27.877Z,79.19
2019-03-28T07:41:55.111Z,78.57
2019-03-28T07:44:22.428Z,78.44
2019-03-28T07:46:49.782Z,78.80
2019-03-28T07:49:17.103Z,73.35
2019-03-28T07:51:44.444Z,72.64
2019-03-28T07:54:11.776Z,73.28
2019-03-28T07:56:39.008Z,71.73
2019-03-28T07:59:06.250Z,70.45
2019-03-28T08:01:33.592Z,69.71
2019-03-28T08:04:00.828Z,72.14
2019-03-28T08:06:28.158Z,71.79
2019-03-28T08:08:55.380Z,70.24
2019-03-28T08:11:22.793Z,70.58
2019-03-28T08:13:50.167Z,68.50
2019-03-28T08:16:17.802Z,68.06
2019-03-28T08:18:45.468Z,69.31
2019-03-28T08:21:12.974Z,68.08
2019-03-28T08:23:40.335Z,68.24
2019-03-28T08:26:07.665Z,68.96
2019-03-28T08:28:35.010Z,66.51
2019-03-28T08:31:02.753Z,64.71
2019-03-28T08:33:31.020Z,62.12
2019-03-28T08:35:58.739Z,59.75
2019-03-28T08:38:26.164Z,61.79
2019-03-28T08:40:53.640Z,62.46
2019-03-28T08:43:20.871Z,61.30
2019-03-28T08:45:48.095Z,63.47
2019-03-28T08:48:15.763Z,61.93
2019-03-28T08:50:43.004Z,58.30
2019-03-28T08:53:10.320Z,63.18
2019-03-28T08:55:37.583Z,61.68
2019-03-28T08:58:04.916Z,58.50
2019-03-28T09:00:39.011Z,53.60
2019-03-28T09:03:01.557Z,53.19
2019-03-28T09:05:28.902Z,50.50
2019-03-28T09:07:56.139Z,51.67
2019-03-28T09:10:23.453Z,47.74
2019-03-28T09:12:51.219Z,45.29
2019-03-28T09:15:18.542Z,35.25
2019-03-28T09:17:45.871Z,36.60
2019-03-28T09:20:13.593Z,39.98
2019-03-28T09:22:41.272Z,40.37
2019-03-28T09:25:08.707Z,36.05
2019-03-28T09:27:36.041Z,37.48
2019-03-28T09:30:05.105Z,40.71
2019-03-28T09:32:32.440Z,43.37
2019-03-28T09:35:00.052Z,45.16
2019-03-28T09:37:27.293Z,47.19
2019-03-28T09:39:54.516Z,43.65
2019-03-28T09:42:22.454Z,40.40
2019-03-28T09:44:49.776Z,42.46
2019-03-28T09:47:17.017Z,43.01
2019-03-28T09:49:44.245Z,40.92
2019-03-28T09:52:11.571Z,39.01
2019-03-28T09:54:38.708Z,33.63
2019-03-28T09:57:05.931Z,29.84
2019-03-28T09:59:33.163Z,31.02
2019-03-28T10:02:01.291Z,31.10
2019-03-28T10:04:28.646Z,25.93
2019-03-28T10:06:55.968Z,21.27
2019-03-28T10:09:23.208Z,22.13
2019-03-28T10:11:50.661Z,23.20
2019-03-28T10:14:18.000Z,24.39
2019-03-28T10:16:45.341Z,26.18
2019-03-28T10:19:12.908Z,32.34
2019-03-28T10:21:40.648Z,30.67
2019-03-28T10:24:08.528Z,25.46
2019-03-28T10:26:35.846Z,20.21
2019-03-28T10:29:03.200Z,18.44
2019-03-28T10:31:30.657Z,22.22
2019-03-28T10:33:57.907Z,27.71
2019-03-28T10:36:27.857Z,27.59
2019-03-28T10:38:55.365Z,30.53
2019-03-28T10:41:25.722Z,28.62
2019-03-28T10:43:51.807Z,30.51
2019-03-28T10:46:19.125Z,30.46
2019-03-28T10:48:46.368Z,30.92
2019-03-28T10:51:13.662Z,26.73
2019-03-28T10:53:41.042Z,24.18
2019-03-28T10:56:20.908Z,23.96
2019-03-28T10:58:37.616Z,24.49
2019-03-28T11:01:05.636Z,25.06
2019-03-28T11:03:33.376Z,23.05
2019-03-28T11:06:00.702Z,25.00
2019-03-28T11:08:28.269Z,27.52
2019-03-28T11:10:56.527Z,25.39
2019-03-28T11:13:24.154Z,27.26
2019-03-28T11:15:51.263Z,30.97
2019-03-28T11:18:18.611Z,33.64
2019-03-28T11:20:45.920Z,33.89
2019-03-28T11:23:13.263Z,35.54
2019-03-28T11:25:40.886Z,36.38
2019-03-28T11:28:08.154Z,36.55
2019-03-28T11:30:35.343Z,37.36
2019-03-28T11:33:06.234Z,38.19
2019-03-28T11:35:32.871Z,38.70
2019-03-28T11:38:00.276Z,38.30
2019-03-28T11:40:27.616Z,37.76
2019-03-28T11:42:54.940Z,37.00
2019-03-28T11:45:22.279Z,38.73
2019-03-28T11:47:49.646Z,38.82
2019-03-28T11:50:17.441Z,37.86
2019-03-28T11:52:44.903Z,37.99
2019-03-28T11:55:12.554Z,38.19
2019-03-28T11:57:39.913Z,38.27
2019-03-28T12:00:09.269Z,37.62
2019-03-28T12:02:36.611Z,40.50
2019-03-28T12:05:04.604Z,42.28
2019-03-28T12:07:32.234Z,41.50
2019-03-28T12:09:59.469Z,42.00
2019-03-28T12:12:26.812Z,41.60
2019-03-28T12:14:54.551Z,42.28
2019-03-28T12:17:21.885Z,43.27
2019-03-28T12:19:49.228Z,44.70
2019-03-28T12:22:16.544Z,45.98
2019-03-28T12:24:43.786Z,47.36
2019-03-28T12:27:11.114Z,47.25
2019-03-28T12:29:38.352Z,46.03
2019-03-28T12:32:13.966Z,45.58
2019-03-28T12:34:35.354Z,45.43
2019-03-28T12:37:02.668Z,45.53
2019-03-28T12:39:29.995Z,45.04
2019-03-28T12:41:57.430Z,43.87
2019-03-28T12:44:24.761Z,44.22
2019-03-28T12:46:52.003Z,45.14
2019-03-28T12:49:19.322Z,43.69
2019-03-28T12:51:46.652Z,44.04
2019-03-28T12:54:13.976Z,43.36
2019-03-28T12:56:41.329Z,42.07
2019-03-28T12:59:09.044Z,42.46
2019-03-28T13:01:36.426Z,42.56
2019-03-28T13:04:03.769Z,41.63
2019-03-28T13:06:31.087Z,41.87
2019-03-28T13:08:58.784Z,41.44
2019-03-28T13:11:26.030Z,40.98
2019-03-28T13:13:53.271Z,40.28
2019-03-28T13:16:20.596Z,41.38
2019-03-28T13:18:47.844Z,41.23
2019-03-28T13:21:15.070Z,41.83
2019-03-28T13:23:42.343Z,42.23
2019-03-28T13:26:26.313Z,42.05
2019-03-28T13:28:54.106Z,41.95
2019-03-28T13:31:21.973Z,42.16
2019-03-28T13:33:49.220Z,43.91
2019-03-28T13:36:16.462Z,43.77
2019-03-28T13:38:43.803Z,43.03
2019-03-28T13:41:11.122Z,43.44
2019-03-28T13:43:38.501Z,42.12
2019-03-28T13:46:06.625Z,43.12
2019-03-28T13:48:34.267Z,42.18
2019-03-28T13:51:01.615Z,41.83
2019-03-28T13:53:39.246Z,42.75
2019-03-28T13:55:58.171Z,44.03
2019-03-28T13:58:25.407Z,45.88
2019-03-28T14:00:54.497Z,46.10
2019-03-28T14:03:22.261Z,46.31
2019-03-28T14:05:49.507Z,46.19
2019-03-28T14:08:16.724Z,47.05
2019-03-28T14:10:44.393Z,48.33
2019-03-28T14:13:12.107Z,48.48
2019-03-28T14:15:39.424Z,48.17
2019-03-28T14:18:06.746Z,48.47
2019-03-28T14:20:34.179Z,48.62
2019-03-28T14:23:01.415Z,48.89
2019-03-28T14:25:28.770Z,48.41
2019-03-28T14:27:55.985Z,48.39
2019-03-28T14:30:23.334Z,48.39
2019-03-28T14:32:53.666Z,47.96
2019-03-28T14:35:19.796Z,47.57
2019-03-28T14:37:47.150Z,48.11
2019-03-28T14:40:14.491Z,47.98
2019-03-28T14:42:41.731Z,48.02
2019-03-28T14:45:09.580Z,48.91
2019-03-28T14:47:36.950Z,49.10
2019-03-28T14:50:06.686Z,48.54
2019-03-28T14:52:33.947Z,48.68
2019-03-28T14:55:02.581Z,48.81
2019-03-28T14:57:31.970Z,47.87
2019-03-28T15:00:01.669Z,48.05
2019-03-28T15:02:29.017Z,48.10
2019-03-28T15:04:57.080Z,47.44
2019-03-28T15:07:25.582Z,46.52
2019-03-28T15:09:53.228Z,47.95
2019-03-28T15:12:20.448Z,47.17
2019-03-28T15:14:47.808Z,47.55
2019-03-28T15:17:15.127Z,47.13
2019-03-28T15:19:42.465Z,45.30
2019-03-28T15:22:09.785Z,47.12
2019-03-28T15:24:37.144Z,46.13
2019-03-28T15:27:04.816Z,47.03
2019-03-28T15:29:32.215Z,46.87
2019-03-28T15:31:59.575Z,46.42
2019-03-28T15:34:26.889Z,46.63
2019-03-28T15:36:54.135Z,46.76
2019-03-28T15:39:22.267Z,45.88
2019-03-28T15:41:49.582Z,46.24
2019-03-28T15:44:16.913Z,47.20
2019-03-28T15:46:44.281Z,47.38
2019-03-28T15:49:11.493Z,46.34
2019-03-28T15:51:38.847Z,47.61
2019-03-28T15:54:06.160Z,47.15
2019-03-28T15:56:33.489Z,47.36
2019-03-28T15:59:01.418Z,47.58
2019-03-28T16:01:29.093Z,48.38
2019-03-28T16:03:56.315Z,48.40
2019-03-28T16:06:23.644Z,48.33
2019-03-28T16:08:50.863Z,48.39
2019-03-28T16:11:18.298Z,48.33
2019-03-28T16:13:45.607Z,49.07
2019-03-28T16:16:12.985Z,49.25
2019-03-28T16:18:40.307Z,49.93
2019-03-28T16:21:07.650Z,49.64
2019-03-28T16:23:34.885Z,49.71
2019-03-28T16:26:02.258Z,50.72
2019-03-28T16:28:32.379Z,51.27
2019-03-28T16:31:00.146Z,52.33
2019-03-28T16:33:27.544Z,52.62
2019-03-28T16:35:54.886Z,53.72
2019-03-28T16:38:22.204Z,54.18
2019-03-28T16:40:49.546Z,53.78
2019-03-28T16:43:16.869Z,54.07
2019-03-28T16:45:44.362Z,54.81
2019-03-28T16:48:11.680Z,54.49
2019-03-28T16:50:39.357Z,56.07
2019-03-28T16:53:06.670Z,55.80
2019-03-28T16:55:34.020Z,55.49
2019-03-28T16:58:01.340Z,55.52
2019-03-28T17:00:38.122Z,55.62
2019-03-28T17:03:07.123Z,56.06
2019-03-28T17:05:34.917Z,55.27
2019-03-28T17:08:02.932Z,55.94
2019-03-28T17:10:41.360Z,56.70
2019-03-28T17:13:08.704Z,56.61
2019-03-28T17:15:36.067Z,57.45
2019-03-28T17:18:03.424Z,57.28
2019-03-28T17:20:30.750Z,57.91
2019-03-28T17:22:58.094Z,57.82
2019-03-28T17:25:25.447Z,58.31
2019-03-28T17:27:52.913Z,58.76
2019-03-28T17:30:20.227Z,58.31
2019-03-28T17:32:47.571Z,58.02
2019-03-28T17:35:16.101Z,58.45
2019-03-28T17:37:43.455Z,57.71
2019-03-28T17:40:10.779Z,58.33
2019-03-28T17:42:38.028Z,58.54
2019-03-28T17:45:05.667Z,57.57
2019-03-28T17:47:33.023Z,56.49
2019-03-28T17:50:00.370Z,56.76
2019-03-28T17:52:29.997Z,56.71
2019-03-28T17:54:57.483Z,56.29
2019-03-28T17:57:24.852Z,56.91
2019-03-28T17:59:52.162Z,57.43
2019-03-28T18:02:19.522Z,58.19
2019-03-28T18:04:48.320Z,57.61
2019-03-28T18:07:15.772Z,57.31
2019-03-28T18:09:43.129Z,58.17
2019-03-28T18:12:10.471Z,59.19
2019-03-28T18:14:37.787Z,58.79
2019-03-28T18:17:05.145Z,59.50
2019-03-28T18:19:32.471Z,60.00
2019-03-28T18:22:03.830Z,60.51
2019-03-28T18:24:30.620Z,59.90
2019-03-28T18:26:57.980Z,59.98
2019-03-28T18:29:25.603Z,60.44
2019-03-28T18:31:53.169Z,61.56
2019-03-28T18:34:20.545Z,60.30
2019-03-28T18:36:47.886Z,60.72
2019-03-28T18:39:15.531Z,60.44
2019-03-28T18:41:43.064Z,60.64
2019-03-28T18:44:11.520Z,60.46
2019-03-28T18:46:39.642Z,60.37
2019-03-28T18:49:06.980Z,60.96
2019-03-28T18:51:34.523Z,61.95
2019-03-28T18:54:03.582Z,62.08
2019-03-28T18:56:31.433Z,62.19
2019-03-28T18:58:59.459Z,62.32
2019-03-28T19:01:27.093Z,62.23
2019-03-28T19:03:55.769Z,62.78
2019-03-28T19:06:23.657Z,62.59
2019-03-28T19:08:50.893Z,62.18
2019-03-28T19:11:19.597Z,61.08
2019-03-28T19:13:46.963Z,62.16
2019-03-28T19:16:14.288Z,62.36
2019-03-28T19:18:41.629Z,63.14
2019-03-28T19:21:08.869Z,65.01
2019-03-28T19:23:36.238Z,65.17
2019-03-28T19:26:03.538Z,66.80
2019-03-28T19:28:30.884Z,67.83
2019-03-28T19:30:58.203Z,69.39
2019-03-28T19:33:25.548Z,69.82
2019-03-28T19:35:53.488Z,70.36
2019-03-28T19:38:21.006Z,70.79
2019-03-28T19:40:48.366Z,70.66
2019-03-28T19:43:20.906Z,70.81
2019-03-28T19:45:44.957Z,70.76
2019-03-28T19:48:12.316Z,70.51
2019-03-28T19:50:39.916Z,69.93
2019-03-28T19:53:07.254Z,70.02
2019-03-28T19:55:34.904Z,70.09
2019-03-28T19:58:02.337Z,70.35
2019-03-28T20:00:31.205Z,69.85
2019-03-28T20:03:00.567Z,69.04
2019-03-28T20:05:28.471Z,69.03
2019-03-28T20:07:58.095Z,68.52
2019-03-28T20:10:26.646Z,68.26
2019-03-28T20:12:55.201Z,68.69
2019-03-28T20:15:22.626Z,68.50
2019-03-28T20:17:49.956Z,68.52
2019-03-28T20:20:18.217Z,68.07
2019-03-28T20:22:45.517Z,67.62
2019-03-28T20:25:12.960Z,67.26
2019-03-28T20:27:40.294Z,67.53
2019-03-28T20:30:09.070Z,67.13
2019-03-28T20:32:37.840Z,67.67
2019-03-28T20:35:10.561Z,68.36
2019-03-28T20:37:38.270Z,69.58
2019-03-28T20:40:06.039Z,69.79
2019-03-28T20:42:33.351Z,71.11
2019-03-28T20:45:02.987Z,71.33
2019-03-28T20:47:30.354Z,71.58
2019-03-28T20:49:57.904Z,71.04
2019-03-28T20:52:25.226Z,70.94
2019-03-28T20:54:52.708Z,71.14
2019-03-28T20:57:23.562Z,70.89
2019-03-28T20:59:50.909Z,70.75
2019-03-28T21:02:19.221Z,71.49
2019-03-28T21:04:46.777Z,71.98
2019-03-28T21:07:16.337Z,72.06
2019-03-28T21:09:44.733Z,72.16
2019-03-28T21:12:12.045Z,72.35
2019-03-28T21:14:41.013Z,73.42
2019-03-28T21:17:09.104Z,73.64
2019-03-28T21:19:37.388Z,74.32
2019-03-28T21:22:06.143Z,74.47
2019-03-28T21:24:33.782Z,75.41
2019-03-28T21:27:01.103Z,75.38
2019-03-28T21:29:28.448Z,75.33
2019-03-28T21:31:55.765Z,75.89
2019-03-28T21:34:24.261Z,75.27
2019-03-28T21:36:51.601Z,74.62
2019-03-28T21:39:20.100Z,74.20
2019-03-28T21:41:47.342Z,74.45
2019-03-28T21:44:14.561Z,74.41
2019-03-28T21:46:41.924Z,74.22
2019-03-28T21:49:09.273Z,73.93
2019-03-28T21:51:36.909Z,73.69
2019-03-28T21:54:05.182Z,72.68
2019-03-28T21:56:32.695Z,72.23
2019-03-28T21:59:00.032Z,72.99
2019-03-28T22:01:27.376Z,73.29
2019-03-28T22:03:54.992Z,73.18
2019-03-28T22:06:23.150Z,73.49
2019-03-28T22:08:50.556Z,74.59
2019-03-28T22:11:17.892Z,74.87
2019-03-28T22:13:46.128Z,75.60
2019-03-28T22:16:13.473Z,75.97
2019-03-28T22:18:40.692Z,75.96
2019-03-28T22:21:08.047Z,75.82
2019-03-28T22:23:35.295Z,76.26
2019-03-28T22:26:02.724Z,76.16
2019-03-28T22:28:30.403Z,75.90
2019-03-28T22:30:57.736Z,75.59
2019-03-28T22:33:25.180Z,75.27
2019-03-28T22:35:52.874Z,75.25
2019-03-28T22:38:21.397Z,74.34
2019-03-28T22:40:48.997Z,74.86
2019-03-28T22:43:17.292Z,75.05
2019-03-28T22:45:44.615Z,75.05
2019-03-28T22:48:13.095Z,74.45
2019-03-28T22:50:41.782Z,74.28
2019-03-28T22:53:09.374Z,74.25
2019-03-28T22:55:36.731Z,74.02
2019-03-28T22:58:04.268Z,74.49
2019-03-28T23:00:51.589Z,74.44
2019-03-28T23:03:18.921Z,74.65
2019-03-28T23:05:46.259Z,75.02
2019-03-28T23:08:13.577Z,75.79
2019-03-28T23:10:40.921Z,76.47
2019-03-28T23:13:08.241Z,76.94
2019-03-28T23:15:37.137Z,77.42
2019-03-28T23:18:04.661Z,77.90
2019-03-28T23:20:33.698Z,77.94
2019-03-28T23:23:01.793Z,78.30
2019-03-28T23:25:29.156Z,78.02
2019-03-28T23:27:56.907Z,78.15
2019-03-28T23:30:24.254Z,78.04
2019-03-28T23:32:51.580Z,78.94
2019-03-28T23:35:18.941Z,80.33
2019-03-28T23:37:46.529Z,80.89
2019-03-28T23:40:13.863Z,81.82
2019-03-28T23:42:41.112Z,82.60
2019-03-28T23:45:10.781Z,82.81
2019-03-28T23:47:38.170Z,83.05
2019-03-28T23:50:06.983Z,83.43
2019-03-28T23:52:34.340Z,82.80
2019-03-28T23:55:01.697Z,82.86
2019-03-28T23:57:29.153Z,81.59
2019-03-28T23:59:56.367Z,81.18
